createdAt,value
2017-03-05T00:00:59.252Z,989.23
2017-03-05T00:02:09.611Z,989.28
2017-03-05T00:03:19.602Z,989.26
2017-03-05T00:04:30.349Z,989.28
2017-03-05T00:05:41.435Z,989.33
2017-03-05T00:06:52.211Z,989.32
2017-03-05T00:08:02.565Z,989.33
2017-03-05T00:09:13.295Z,989.38
2017-03-05T00:10:23.643Z,989.43
2017-03-05T00:11:34.232Z,989.42
2017-03-05T00:12:44.975Z,989.44
2017-03-05T00:13:55.724Z,989.44
2017-03-05T00:15:06.460Z,989.44
2017-03-05T00:16:16.418Z,989.49
2017-03-05T00:17:27.032Z,989.49
2017-03-05T00:18:36.577Z,989.48
2017-03-05T00:19:46.968Z,989.5
2017-03-05T00:20:56.968Z,989.51
2017-03-05T00:22:07.746Z,989.51
2017-03-05T00:23:17.995Z,989.48
2017-03-05T00:24:28.371Z,989.5
2017-03-05T00:25:38.377Z,989.55
2017-03-05T00:26:48.724Z,989.56
2017-03-05T00:27:59.507Z,989.56
2017-03-05T00:29:10.557Z,989.57
2017-03-05T00:30:20.911Z,989.59
2017-03-05T00:31:31.682Z,989.61
2017-03-05T00:32:42.476Z,989.63
2017-03-05T00:33:53.256Z,989.63
2017-03-05T00:35:03.519Z,989.73
2017-03-05T00:36:13.878Z,989.81
2017-03-05T00:37:24.242Z,989.81
2017-03-05T00:38:34.596Z,989.77
2017-03-05T00:39:44.544Z,989.87
2017-03-05T00:40:55.133Z,989.83
2017-03-05T00:42:05.507Z,989.93
2017-03-05T00:43:15.852Z,989.93
2017-03-05T00:44:26.583Z,990.01
2017-03-05T00:45:37.563Z,989.97
2017-03-05T00:46:48.191Z,990.04
2017-03-05T00:47:58.139Z,990.04
2017-03-05T00:49:08.524Z,990.06
2017-03-05T00:50:19.244Z,990
2017-03-05T00:51:29.596Z,990.04
2017-03-05T00:52:40.191Z,990.03
2017-03-05T00:53:50.968Z,989.99
2017-03-05T00:55:01.738Z,989.99
2017-03-05T00:56:12.085Z,989.98
2017-03-05T00:57:22.828Z,990.03
2017-03-05T00:58:33.424Z,990.07
2017-03-05T00:59:43.775Z,990.15
2017-03-05T01:00:54.114Z,990.27
2017-03-05T01:02:04.870Z,990.32
2017-03-05T01:03:15.619Z,990.31
2017-03-05T01:04:26.610Z,990.31
2017-03-05T01:05:36.988Z,990.31
2017-03-05T01:06:47.356Z,990.25
2017-03-05T01:07:58.104Z,990.21
2017-03-05T01:09:08.469Z,990.22
2017-03-05T01:10:19.070Z,990.23
2017-03-05T01:11:29.438Z,990.27
2017-03-05T01:12:39.407Z,990.22
2017-03-05T01:13:49.766Z,990.27
2017-03-05T01:15:00.119Z,990.27
2017-03-05T01:16:10.713Z,990.32
2017-03-05T01:17:20.687Z,990.38
2017-03-05T01:18:31.023Z,990.43
2017-03-05T01:19:41.017Z,990.42
2017-03-05T01:20:51.746Z,990.4
2017-03-05T01:22:02.765Z,990.38
2017-03-05T01:23:13.139Z,990.37
2017-03-05T01:24:23.887Z,990.35
2017-03-05T01:25:34.237Z,990.36
2017-03-05T01:26:43.408Z,990.43
2017-03-05T01:27:53.311Z,990.46
2017-03-05T01:29:03.661Z,990.48
2017-03-05T01:30:13.216Z,990.48
2017-03-05T01:31:23.580Z,990.48
2017-03-05T01:32:34.324Z,990.57
2017-03-05T01:33:44.521Z,990.54
2017-03-05T01:34:54.869Z,990.53
2017-03-05T01:36:04.831Z,990.53
2017-03-05T01:37:15.229Z,990.57
2017-03-05T01:38:25.183Z,990.51
2017-03-05T01:39:35.862Z,990.59
2017-03-05T01:40:46.204Z,990.63
2017-03-05T01:41:55.785Z,990.6
2017-03-05T01:43:06.147Z,990.57
2017-03-05T01:44:16.093Z,990.59
2017-03-05T01:45:26.743Z,990.58
2017-03-05T01:46:37.551Z,990.62
2017-03-05T01:47:47.501Z,990.58
2017-03-05T01:48:58.259Z,990.57
2017-03-05T01:50:08.614Z,990.59
2017-03-05T01:51:19.671Z,990.57
2017-03-05T01:52:30.407Z,990.61
2017-03-05T01:53:40.781Z,990.62
2017-03-05T01:54:51.776Z,990.61
2017-03-05T01:56:01.741Z,990.58
2017-03-05T01:57:11.565Z,990.58
2017-03-05T01:58:21.512Z,990.59
2017-03-05T01:59:31.081Z,990.63
2017-03-05T02:00:41.822Z,990.63
2017-03-05T02:01:52.593Z,990.68
2017-03-05T02:03:03.216Z,990.72
2017-03-05T02:04:13.949Z,990.76
2017-03-05T02:05:24.292Z,990.79
2017-03-05T02:06:34.649Z,990.78
2017-03-05T02:07:44.243Z,990.84
2017-03-05T02:08:54.909Z,990.87
2017-03-05T02:10:05.258Z,990.9
2017-03-05T02:11:16.257Z,990.91
2017-03-05T02:12:27.001Z,990.97
2017-03-05T02:13:37.340Z,990.99
2017-03-05T02:14:47.584Z,991.01
2017-03-05T02:15:57.547Z,991.04
2017-03-05T02:17:07.895Z,991.05
2017-03-05T02:18:18.617Z,991.09
2017-03-05T02:19:28.961Z,991.14
2017-03-05T02:20:39.955Z,991.19
2017-03-05T02:21:49.901Z,991.24
2017-03-05T02:22:59.882Z,991.25
2017-03-05T02:24:10.228Z,991.18
2017-03-05T02:25:20.612Z,991.2
2017-03-05T02:26:31.277Z,991.14
2017-03-05T02:27:42.035Z,991.13
2017-03-05T02:28:52.392Z,991.1
2017-03-05T02:30:02.746Z,991.08
2017-03-05T02:31:13.098Z,991.01
2017-03-05T02:32:24.154Z,991.04
2017-03-05T02:33:34.922Z,991.04
2017-03-05T02:34:45.269Z,991.03
2017-03-05T02:35:55.233Z,991.03
2017-03-05T02:37:05.738Z,991.08
2017-03-05T02:38:16.747Z,991.06
2017-03-05T02:39:27.498Z,991.07
2017-03-05T02:40:37.844Z,991.08
2017-03-05T02:41:48.628Z,991.12
2017-03-05T02:42:59.370Z,991.12
2017-03-05T02:44:09.975Z,991.18
2017-03-05T02:45:20.327Z,991.22
2017-03-05T02:46:30.684Z,991.25
2017-03-05T02:47:41.043Z,991.34
2017-03-05T02:48:51.421Z,991.36
2017-03-05T02:50:02.072Z,991.37
2017-03-05T02:51:12.410Z,991.43
2017-03-05T02:52:22.385Z,991.38
2017-03-05T02:53:33.115Z,991.42
2017-03-05T02:54:43.613Z,991.39
2017-03-05T02:55:54.616Z,991.39
2017-03-05T02:57:04.980Z,991.41
2017-03-05T02:58:15.320Z,991.42
2017-03-05T02:59:26.084Z,991.46
2017-03-05T03:00:36.046Z,991.49
2017-03-05T03:01:46.302Z,991.5
2017-03-05T03:02:55.857Z,991.49
2017-03-05T03:04:06.212Z,991.5
2017-03-05T03:05:16.180Z,991.53
2017-03-05T03:06:26.638Z,991.54
2017-03-05T03:07:37.239Z,991.55
2017-03-05T03:08:47.986Z,991.6
2017-03-05T03:09:58.342Z,991.57
2017-03-05T03:11:09.080Z,991.56
2017-03-05T03:12:19.822Z,991.53
2017-03-05T03:13:30.033Z,991.49
2017-03-05T03:14:40.765Z,991.48
2017-03-05T03:15:51.105Z,991.49
2017-03-05T03:17:01.058Z,991.53
2017-03-05T03:18:11.015Z,991.61
2017-03-05T03:19:21.604Z,991.67
2017-03-05T03:20:31.955Z,991.76
2017-03-05T03:21:41.520Z,991.81
2017-03-05T03:22:52.276Z,991.8
2017-03-05T03:24:02.663Z,991.88
2017-03-05T03:25:13.303Z,991.96
2017-03-05T03:26:23.247Z,991.99
2017-03-05T03:27:33.606Z,992
2017-03-05T03:28:44.350Z,992.05
2017-03-05T03:29:55.089Z,992.15
2017-03-05T03:31:05.687Z,992.21
2017-03-05T03:32:16.137Z,992.24
2017-03-05T03:33:26.889Z,992.29
2017-03-05T03:34:37.639Z,992.39
2017-03-05T03:35:47.581Z,992.38
2017-03-05T03:36:57.418Z,992.38
2017-03-05T03:38:07.369Z,992.49
2017-03-05T03:39:17.715Z,992.49
2017-03-05T03:40:28.449Z,992.52
2017-03-05T03:41:38.013Z,992.6
2017-03-05T03:42:48.612Z,992.68
2017-03-05T03:43:58.592Z,992.72
2017-03-05T03:45:08.532Z,992.77
2017-03-05T03:46:18.490Z,992.84
2017-03-05T03:47:28.862Z,992.77
2017-03-05T03:48:39.114Z,992.82
2017-03-05T03:49:49.482Z,992.78
2017-03-05T03:51:00.206Z,992.74
2017-03-05T03:52:10.941Z,992.79
2017-03-05T03:53:21.328Z,992.79
2017-03-05T03:54:32.360Z,992.81
2017-03-05T03:55:43.104Z,992.83
2017-03-05T03:56:53.475Z,992.81
2017-03-05T03:58:04.197Z,992.83
2017-03-05T03:59:14.151Z,992.88
2017-03-05T04:00:24.809Z,992.8
2017-03-05T04:01:35.172Z,992.84
2017-03-05T04:02:45.908Z,992.87
2017-03-05T04:03:56.250Z,992.93
2017-03-05T04:05:06.586Z,992.97
2017-03-05T04:06:15.991Z,992.98
2017-03-05T04:07:26.791Z,993.02
2017-03-05T04:08:36.744Z,993.07
2017-03-05T04:09:47.092Z,993.07
2017-03-05T04:10:57.453Z,993.11
2017-03-05T04:12:08.104Z,993.13
2017-03-05T04:13:18.855Z,993.18
2017-03-05T04:14:29.590Z,993.16
2017-03-05T04:15:40.330Z,993.3
2017-03-05T04:16:50.688Z,993.3
2017-03-05T04:18:01.280Z,993.36
2017-03-05T04:19:11.625Z,993.38
2017-03-05T04:20:22.355Z,993.41
2017-03-05T04:21:33.091Z,993.42
2017-03-05T04:22:43.437Z,993.44
2017-03-05T04:23:54.022Z,993.51
2017-03-05T04:25:04.765Z,993.53
2017-03-05T04:26:15.110Z,993.56
2017-03-05T04:27:25.040Z,993.57
2017-03-05T04:28:34.992Z,993.57
2017-03-05T04:29:45.232Z,993.56
2017-03-05T04:30:55.178Z,993.56
2017-03-05T04:32:05.925Z,993.58
2017-03-05T04:33:16.261Z,993.58
2017-03-05T04:34:27.012Z,993.55
2017-03-05T04:35:38.042Z,993.55
2017-03-05T04:36:47.997Z,993.55
2017-03-05T04:37:57.930Z,993.52
2017-03-05T04:39:08.320Z,993.54
2017-03-05T04:40:18.278Z,993.5
2017-03-05T04:41:28.909Z,993.52
2017-03-05T04:42:38.895Z,993.54
2017-03-05T04:43:49.232Z,993.62
2017-03-05T04:44:58.781Z,993.62
2017-03-05T04:46:09.172Z,993.64
2017-03-05T04:47:19.421Z,993.6
2017-03-05T04:48:28.979Z,993.62
2017-03-05T04:49:39.715Z,993.61
2017-03-05T04:50:49.666Z,993.6
2017-03-05T04:51:59.616Z,993.63
2017-03-05T04:53:10.268Z,993.61
2017-03-05T04:54:20.639Z,993.65
2017-03-05T04:55:30.983Z,993.71
2017-03-05T04:56:41.737Z,993.74
2017-03-05T04:57:52.493Z,993.77
2017-03-05T04:59:03.130Z,993.85
2017-03-05T05:00:13.478Z,993.78
2017-03-05T05:01:22.630Z,993.84
2017-03-05T05:02:33.383Z,993.79
2017-03-05T05:03:43.732Z,993.8
2017-03-05T05:04:54.391Z,993.77
2017-03-05T05:06:04.335Z,993.8
2017-03-05T05:07:14.797Z,993.8
2017-03-05T05:08:25.162Z,993.81
2017-03-05T05:09:35.908Z,993.78
2017-03-05T05:10:46.953Z,993.83
2017-03-05T05:11:57.305Z,993.81
2017-03-05T05:13:08.072Z,993.8
2017-03-05T05:14:18.416Z,993.81
2017-03-05T05:15:28.364Z,993.86
2017-03-05T05:16:39.372Z,993.85
2017-03-05T05:17:50.105Z,993.9
2017-03-05T05:19:00.858Z,993.93
2017-03-05T05:20:11.599Z,993.95
2017-03-05T05:21:21.972Z,993.99
2017-03-05T05:22:33.039Z,993.99
2017-03-05T05:23:42.998Z,993.98
2017-03-05T05:24:52.943Z,994
2017-03-05T05:26:02.889Z,994.02
2017-03-05T05:27:12.457Z,994.04
2017-03-05T05:28:23.054Z,994.08
2017-03-05T05:29:33.801Z,994.1
2017-03-05T05:30:43.764Z,994.14
2017-03-05T05:31:54.524Z,994.15
2017-03-05T05:33:04.483Z,994.16
2017-03-05T05:34:15.120Z,994.19
2017-03-05T05:35:25.100Z,994.24
2017-03-05T05:36:35.879Z,994.29
2017-03-05T05:37:46.224Z,994.29
2017-03-05T05:38:56.189Z,994.38
2017-03-05T05:40:06.438Z,994.4
2017-03-05T05:41:17.193Z,994.42
2017-03-05T05:42:27.526Z,994.4
2017-03-05T05:43:38.271Z,994.46
2017-03-05T05:44:49.021Z,994.42
2017-03-05T05:45:59.233Z,994.44
2017-03-05T05:47:09.974Z,994.52
2017-03-05T05:48:20.329Z,994.5
2017-03-05T05:49:30.671Z,994.53
2017-03-05T05:50:40.644Z,994.53
2017-03-05T05:51:51.651Z,994.55
2017-03-05T05:53:02.419Z,994.56
2017-03-05T05:54:12.377Z,994.55
2017-03-05T05:55:23.145Z,994.53
2017-03-05T05:56:33.497Z,994.55
2017-03-05T05:57:44.109Z,994.62
2017-03-05T05:58:54.874Z,994.59
2017-03-05T06:00:05.608Z,994.61
2017-03-05T06:01:15.955Z,994.64
2017-03-05T06:02:26.304Z,994.6
2017-03-05T06:03:36.918Z,994.63
2017-03-05T06:04:46.864Z,994.69
2017-03-05T06:05:57.616Z,994.72
2017-03-05T06:07:07.955Z,994.78
2017-03-05T06:08:18.745Z,994.79
2017-03-05T06:09:28.971Z,994.76
2017-03-05T06:10:39.347Z,994.8
2017-03-05T06:11:49.699Z,994.8
2017-03-05T06:13:00.452Z,994.84
2017-03-05T06:14:10.425Z,994.83
2017-03-05T06:15:21.023Z,994.87
2017-03-05T06:16:30.982Z,994.89
2017-03-05T06:17:40.931Z,994.89
2017-03-05T06:18:51.286Z,994.9
2017-03-05T06:20:01.657Z,994.91
2017-03-05T06:21:12.295Z,994.91
2017-03-05T06:22:21.858Z,994.94
2017-03-05T06:23:31.424Z,995.03
2017-03-05T06:24:41.763Z,995
2017-03-05T06:25:52.112Z,995.03
2017-03-05T06:27:02.695Z,995.06
2017-03-05T06:28:13.103Z,995.07
2017-03-05T06:29:23.478Z,995.07
2017-03-05T06:30:34.217Z,995.13
2017-03-05T06:31:44.168Z,995.12
2017-03-05T06:32:54.429Z,995.16
2017-03-05T06:34:04.784Z,995.16
2017-03-05T06:35:15.120Z,995.2
2017-03-05T06:36:25.485Z,995.23
2017-03-05T06:37:35.427Z,995.24
2017-03-05T06:38:45.641Z,995.3
2017-03-05T06:39:56.036Z,995.32
2017-03-05T06:41:05.996Z,995.3
2017-03-05T06:42:16.368Z,995.33
2017-03-05T06:43:27.116Z,995.36
2017-03-05T06:44:37.702Z,995.34
2017-03-05T06:45:48.109Z,995.42
2017-03-05T06:46:58.056Z,995.42
2017-03-05T06:48:08.008Z,995.4
2017-03-05T06:49:17.973Z,995.43
2017-03-05T06:50:29.006Z,995.48
2017-03-05T06:51:39.370Z,995.43
2017-03-05T06:52:48.917Z,995.46
2017-03-05T06:53:58.896Z,995.47
2017-03-05T06:55:09.639Z,995.5
2017-03-05T06:56:20.708Z,995.48
2017-03-05T06:57:30.657Z,995.55
2017-03-05T06:58:41.009Z,995.54
2017-03-05T06:59:51.760Z,995.57
2017-03-05T07:01:01.719Z,995.62
2017-03-05T07:02:12.365Z,995.62
2017-03-05T07:03:22.743Z,995.69
2017-03-05T07:04:33.478Z,995.69
2017-03-05T07:05:43.460Z,995.74
2017-03-05T07:06:53.824Z,995.72
2017-03-05T07:08:04.471Z,995.77
2017-03-05T07:09:15.223Z,995.8
2017-03-05T07:10:25.959Z,995.82
2017-03-05T07:11:35.936Z,995.87
2017-03-05T07:12:46.295Z,995.86
2017-03-05T07:13:56.955Z,995.9
2017-03-05T07:15:07.335Z,995.89
2017-03-05T07:16:17.303Z,995.92
2017-03-05T07:17:27.282Z,995.91
2017-03-05T07:18:38.034Z,995.94
2017-03-05T07:19:48.701Z,995.95
2017-03-05T07:20:59.444Z,995.97
2017-03-05T07:22:10.221Z,996.02
2017-03-05T07:23:20.190Z,996
2017-03-05T07:24:30.547Z,996.02
2017-03-05T07:25:41.572Z,996.04
2017-03-05T07:26:51.527Z,996.07
2017-03-05T07:28:02.302Z,996.02
2017-03-05T07:29:12.262Z,996.08
2017-03-05T07:30:23.022Z,996.06
2017-03-05T07:31:33.670Z,996.09
2017-03-05T07:32:44.416Z,996.12
2017-03-05T07:33:54.762Z,996.14
2017-03-05T07:35:05.524Z,996.09
2017-03-05T07:36:16.303Z,996.16
2017-03-05T07:37:26.906Z,996.14
2017-03-05T07:38:37.246Z,996.12
2017-03-05T07:39:48.000Z,996.18
2017-03-05T07:40:58.352Z,996.25
2017-03-05T07:42:09.110Z,996.21
2017-03-05T07:43:20.140Z,996.24
2017-03-05T07:44:30.493Z,996.23
2017-03-05T07:45:40.854Z,996.22
2017-03-05T07:46:51.208Z,996.32
2017-03-05T07:48:01.960Z,996.32
2017-03-05T07:49:12.177Z,996.31
2017-03-05T07:50:22.531Z,996.25
2017-03-05T07:51:32.883Z,996.34
2017-03-05T07:52:43.655Z,996.34
2017-03-05T07:53:53.226Z,996.38
2017-03-05T07:55:03.077Z,996.37
2017-03-05T07:56:13.444Z,996.4
2017-03-05T07:57:24.196Z,996.39
2017-03-05T07:58:34.157Z,996.44
2017-03-05T07:59:44.903Z,996.43
2017-03-05T08:00:55.172Z,996.44
2017-03-05T08:02:05.514Z,996.48
2017-03-05T08:03:15.882Z,996.53
2017-03-05T08:04:26.650Z,996.51
2017-03-05T08:05:37.005Z,996.58
2017-03-05T08:06:47.612Z,996.58
2017-03-05T08:07:58.381Z,996.6
2017-03-05T08:09:09.165Z,996.67
2017-03-05T08:10:19.546Z,996.67
2017-03-05T08:11:29.495Z,996.64
2017-03-05T08:12:40.161Z,996.63
2017-03-05T08:13:50.139Z,996.6
2017-03-05T08:15:00.500Z,996.65
2017-03-05T08:16:10.436Z,996.67
2017-03-05T08:17:20.781Z,996.62
2017-03-05T08:18:31.430Z,996.68
2017-03-05T08:19:41.779Z,996.67
2017-03-05T08:20:52.134Z,996.76
2017-03-05T08:22:02.499Z,996.77
2017-03-05T08:23:13.281Z,996.75
2017-03-05T08:24:23.888Z,996.77
2017-03-05T08:25:34.641Z,996.77
2017-03-05T08:26:45.386Z,996.81
2017-03-05T08:27:55.751Z,996.77
2017-03-05T08:29:05.706Z,996.75
2017-03-05T08:30:15.517Z,996.78
2017-03-05T08:31:26.275Z,996.82
2017-03-05T08:32:36.640Z,996.83
2017-03-05T08:33:46.982Z,996.84
2017-03-05T08:34:56.990Z,996.85
2017-03-05T08:36:08.062Z,996.86
2017-03-05T08:37:17.297Z,996.9
2017-03-05T08:38:27.661Z,996.9
2017-03-05T08:39:38.435Z,996.93
2017-03-05T08:40:48.434Z,996.87
2017-03-05T08:41:59.085Z,996.83
2017-03-05T08:43:09.857Z,996.87
2017-03-05T08:44:20.597Z,996.89
2017-03-05T08:45:30.554Z,996.84
2017-03-05T08:46:40.506Z,996.89
2017-03-05T08:47:50.722Z,996.89
2017-03-05T08:49:01.069Z,996.91
2017-03-05T08:50:10.628Z,997.04
2017-03-05T08:51:21.402Z,996.98
2017-03-05T08:52:32.179Z,997.02
2017-03-05T08:53:42.406Z,997.08
2017-03-05T08:54:53.142Z,997.02
2017-03-05T08:56:03.091Z,997.07
2017-03-05T08:57:13.498Z,997.14
2017-03-05T08:58:23.847Z,997.18
2017-03-05T08:59:34.458Z,997.21
2017-03-05T09:00:44.810Z,997.17
2017-03-05T09:01:55.565Z,997.22
2017-03-05T09:03:06.301Z,997.22
2017-03-05T09:04:16.672Z,997.32
2017-03-05T09:05:27.322Z,997.31
2017-03-05T09:06:37.710Z,997.34
2017-03-05T09:07:48.090Z,997.35
2017-03-05T09:08:58.458Z,997.35
2017-03-05T09:10:08.407Z,997.38
2017-03-05T09:11:18.669Z,997.42
2017-03-05T09:12:29.054Z,997.35
2017-03-05T09:13:38.605Z,997.37
2017-03-05T09:14:48.957Z,997.44
2017-03-05T09:15:58.912Z,997.45
2017-03-05T09:17:09.537Z,997.44
2017-03-05T09:18:19.930Z,997.43
2017-03-05T09:19:29.503Z,997.46
2017-03-05T09:20:39.860Z,997.45
2017-03-05T09:21:50.212Z,997.47
2017-03-05T09:23:01.245Z,997.48
2017-03-05T09:24:12.016Z,997.48
2017-03-05T09:25:22.381Z,997.53
2017-03-05T09:26:32.352Z,997.52
2017-03-05T09:27:42.697Z,997.53
2017-03-05T09:28:53.763Z,997.52
2017-03-05T09:30:04.106Z,997.59
2017-03-05T09:31:14.452Z,997.61
2017-03-05T09:32:24.428Z,997.61
2017-03-05T09:33:35.174Z,997.61
2017-03-05T09:34:45.833Z,997.61
2017-03-05T09:35:56.579Z,997.62
2017-03-05T09:37:06.164Z,997.63
2017-03-05T09:38:16.539Z,997.64
2017-03-05T09:39:26.929Z,997.63
2017-03-05T09:40:37.197Z,997.67
2017-03-05T09:41:47.146Z,997.65
2017-03-05T09:42:57.089Z,997.66
2017-03-05T09:44:07.446Z,997.69
2017-03-05T09:45:18.201Z,997.68
2017-03-05T09:46:28.883Z,997.73
2017-03-05T09:47:38.460Z,997.81
2017-03-05T09:48:48.817Z,997.74
2017-03-05T09:49:59.165Z,997.81
2017-03-05T09:51:09.917Z,997.83
2017-03-05T09:52:19.738Z,997.77
2017-03-05T09:53:29.308Z,997.86
2017-03-05T09:54:39.671Z,997.89
2017-03-05T09:55:49.616Z,997.86
2017-03-05T09:57:00.019Z,997.82
2017-03-05T09:58:11.082Z,997.79
2017-03-05T09:59:21.421Z,997.86
2017-03-05T10:00:32.171Z,997.84
2017-03-05T10:01:42.941Z,997.84
2017-03-05T10:02:52.940Z,997.9
2017-03-05T10:04:03.541Z,997.88
2017-03-05T10:05:13.510Z,997.89
2017-03-05T10:06:23.859Z,997.92
2017-03-05T10:07:33.828Z,997.9
2017-03-05T10:08:43.805Z,997.9
2017-03-05T10:09:54.060Z,997.89
2017-03-05T10:11:04.022Z,997.92
2017-03-05T10:12:14.376Z,997.96
2017-03-05T10:13:24.361Z,997.99
2017-03-05T10:14:35.091Z,997.99
2017-03-05T10:15:45.741Z,997.99
2017-03-05T10:16:56.128Z,997.93
2017-03-05T10:18:06.485Z,997.94
2017-03-05T10:19:16.852Z,998
2017-03-05T10:20:27.187Z,998
2017-03-05T10:21:38.234Z,998.05
2017-03-05T10:22:48.191Z,998.03
2017-03-05T10:23:58.546Z,998.05
2017-03-05T10:25:09.293Z,998.08
2017-03-05T10:26:20.057Z,998.01
2017-03-05T10:27:31.062Z,998.04
2017-03-05T10:28:41.791Z,998.07
2017-03-05T10:29:52.182Z,998.05
2017-03-05T10:31:02.921Z,997.96
2017-03-05T10:32:12.463Z,998.03
2017-03-05T10:33:22.690Z,998.06
2017-03-05T10:34:32.623Z,998.09
2017-03-05T10:35:42.992Z,998.13
2017-03-05T10:36:53.382Z,998.12
2017-03-05T10:38:04.127Z,998.15
2017-03-05T10:39:15.154Z,998.2
2017-03-05T10:40:24.715Z,998.19
2017-03-05T10:41:35.444Z,998.2
2017-03-05T10:42:45.821Z,998.2
2017-03-05T10:43:55.765Z,998.24
2017-03-05T10:45:06.361Z,998.22
2017-03-05T10:46:16.351Z,998.23
2017-03-05T10:47:26.711Z,998.27
2017-03-05T10:48:36.650Z,998.23
2017-03-05T10:49:47.391Z,998.19
2017-03-05T10:50:58.406Z,998.21
2017-03-05T10:52:08.345Z,998.24
2017-03-05T10:53:18.704Z,998.26
2017-03-05T10:54:29.437Z,998.29
2017-03-05T10:55:39.386Z,998.25
2017-03-05T10:56:49.993Z,998.33
2017-03-05T10:58:00.749Z,998.3
2017-03-05T10:59:11.127Z,998.25
2017-03-05T11:00:21.465Z,998.25
2017-03-05T11:01:32.220Z,998.26
2017-03-05T11:02:42.818Z,998.23
2017-03-05T11:03:52.786Z,998.3
2017-03-05T11:05:02.762Z,998.31
2017-03-05T11:06:13.103Z,998.27
2017-03-05T11:07:23.060Z,998.32
2017-03-05T11:08:34.048Z,998.29
2017-03-05T11:09:45.187Z,998.29
2017-03-05T11:10:55.906Z,998.3
2017-03-05T11:12:06.237Z,998.31
2017-03-05T11:13:15.403Z,998.3
2017-03-05T11:14:26.432Z,998.3
2017-03-05T11:15:36.390Z,998.3
2017-03-05T11:16:46.729Z,998.28
2017-03-05T11:17:56.284Z,998.29
2017-03-05T11:19:06.627Z,998.24
2017-03-05T11:20:17.241Z,998.25
2017-03-05T11:21:27.170Z,998.32
2017-03-05T11:22:37.523Z,998.26
2017-03-05T11:23:47.890Z,998.28
2017-03-05T11:24:58.213Z,998.27
2017-03-05T11:26:07.609Z,998.25
2017-03-05T11:27:16.772Z,998.25
2017-03-05T11:28:26.722Z,998.28
2017-03-05T11:29:37.456Z,998.25
2017-03-05T11:30:47.407Z,998.29
2017-03-05T11:31:57.989Z,998.22
2017-03-05T11:33:08.345Z,998.23
2017-03-05T11:34:18.695Z,998.27
2017-03-05T11:35:29.456Z,998.24
2017-03-05T11:36:40.174Z,998.23
2017-03-05T11:37:50.794Z,998.25
2017-03-05T11:39:01.542Z,998.24
2017-03-05T11:40:12.287Z,998.21
2017-03-05T11:41:22.646Z,998.19
2017-03-05T11:42:33.008Z,998.18
2017-03-05T11:43:43.252Z,998.16
2017-03-05T11:44:53.605Z,998.16
2017-03-05T11:46:03.588Z,998.11
2017-03-05T11:47:13.942Z,998.19
2017-03-05T11:48:24.306Z,998.12
2017-03-05T11:49:34.537Z,998.13
2017-03-05T11:50:44.912Z,998.09
2017-03-05T11:51:55.655Z,998.14
2017-03-05T11:53:06.418Z,998.14
2017-03-05T11:54:16.421Z,998.16
2017-03-05T11:55:27.034Z,998.15
2017-03-05T11:56:36.994Z,998.14
2017-03-05T11:57:46.575Z,998.2
2017-03-05T11:58:57.339Z,998.16
2017-03-05T12:00:07.718Z,998.19
2017-03-05T12:01:18.775Z,998.2
2017-03-05T12:02:28.757Z,998.25
2017-03-05T12:03:39.514Z,998.25
2017-03-05T12:04:50.274Z,998.24
2017-03-05T12:06:00.637Z,998.21
2017-03-05T12:07:11.729Z,998.21
2017-03-05T12:08:22.500Z,998.22
2017-03-05T12:09:32.475Z,998.24
2017-03-05T12:10:42.834Z,998.25
2017-03-05T12:11:53.214Z,998.24
2017-03-05T12:13:04.236Z,998.22
2017-03-05T12:14:14.615Z,998.24
2017-03-05T12:15:25.372Z,998.21
2017-03-05T12:16:36.167Z,998.21
2017-03-05T12:17:46.939Z,998.17
2017-03-05T12:18:57.944Z,998.18
2017-03-05T12:20:08.323Z,998.18
2017-03-05T12:21:18.684Z,998.12
2017-03-05T12:22:29.046Z,998.12
2017-03-05T12:23:39.828Z,998.12
2017-03-05T12:24:50.485Z,998.11
2017-03-05T12:26:01.355Z,998.15
2017-03-05T12:27:11.308Z,998.11
2017-03-05T12:28:22.043Z,998.09
2017-03-05T12:29:32.795Z,998.07
2017-03-05T12:30:43.048Z,998.12
2017-03-05T12:31:53.719Z,998.13
2017-03-05T12:33:04.110Z,998.13
2017-03-05T12:34:14.477Z,998.13
2017-03-05T12:35:25.266Z,998.12
2017-03-05T12:36:35.866Z,998.11
2017-03-05T12:37:45.885Z,998.07
2017-03-05T12:38:55.838Z,998.11
2017-03-05T12:40:06.585Z,998.06
2017-03-05T12:41:16.941Z,998.09
2017-03-05T12:42:27.634Z,998.08
2017-03-05T12:43:38.050Z,998.09
2017-03-05T12:44:48.408Z,998.04
2017-03-05T12:45:58.783Z,998.11
2017-03-05T12:47:08.748Z,998.02
2017-03-05T12:48:19.747Z,998.08
2017-03-05T12:49:29.722Z,998.04
2017-03-05T12:50:40.487Z,998.05
2017-03-05T12:51:50.847Z,998.07
2017-03-05T12:53:01.574Z,998.04
2017-03-05T12:54:12.197Z,998.01
2017-03-05T12:55:22.955Z,997.99
2017-03-05T12:56:32.516Z,998.01
2017-03-05T12:57:42.859Z,998.02
2017-03-05T12:58:53.235Z,998.03
2017-03-05T13:00:03.838Z,998.03
2017-03-05T13:01:13.428Z,998.03
2017-03-05T13:02:24.218Z,998
2017-03-05T13:03:35.000Z,997.97
2017-03-05T13:04:44.957Z,998.01
2017-03-05T13:05:56.035Z,997.94
2017-03-05T13:07:06.807Z,998.01
2017-03-05T13:08:16.776Z,998.05
2017-03-05T13:09:27.567Z,998.02
2017-03-05T13:10:37.940Z,998.02
2017-03-05T13:11:48.597Z,998.02
2017-03-05T13:12:58.213Z,998.08
2017-03-05T13:14:08.593Z,998.06
2017-03-05T13:15:18.947Z,998.02
2017-03-05T13:16:29.722Z,998
2017-03-05T13:17:40.327Z,997.95
2017-03-05T13:18:51.094Z,998.01
2017-03-05T13:20:01.069Z,998.01
2017-03-05T13:21:11.426Z,997.92
2017-03-05T13:22:22.204Z,997.97
2017-03-05T13:23:33.276Z,997.94
2017-03-05T13:24:43.660Z,997.98
2017-03-05T13:25:54.442Z,997.96
2017-03-05T13:27:05.227Z,997.97
2017-03-05T13:28:15.208Z,997.92
2017-03-05T13:29:25.480Z,997.98
2017-03-05T13:30:35.849Z,997.94
2017-03-05T13:31:46.633Z,997.99
2017-03-05T13:32:57.001Z,997.99
2017-03-05T13:34:07.366Z,998.02
2017-03-05T13:35:18.045Z,998.02
2017-03-05T13:36:28.829Z,998.03
2017-03-05T13:37:39.600Z,998.07
2017-03-05T13:38:49.946Z,998.03
2017-03-05T13:40:00.301Z,998.02
2017-03-05T13:41:11.356Z,998.03
2017-03-05T13:42:21.754Z,998.1
2017-03-05T13:43:32.112Z,998.07
2017-03-05T13:44:42.890Z,998.07
2017-03-05T13:45:53.656Z,998.06
2017-03-05T13:47:04.725Z,998.11
2017-03-05T13:48:15.500Z,998.04
2017-03-05T13:49:25.928Z,998.07
2017-03-05T13:50:36.302Z,998.09
2017-03-05T13:51:46.689Z,998.07
2017-03-05T13:53:01.610Z,998.11
2017-03-05T13:54:12.379Z,998.03
2017-03-05T13:55:22.743Z,998.04
2017-03-05T13:56:32.683Z,998.05
2017-03-05T13:57:43.416Z,998.06
2017-03-05T13:58:53.228Z,998.03
2017-03-05T14:00:03.591Z,997.99
2017-03-05T14:01:12.747Z,998.04
2017-03-05T14:02:22.702Z,997.98
2017-03-05T14:03:33.064Z,998
2017-03-05T14:04:43.671Z,998.04
2017-03-05T14:05:53.623Z,998.01
2017-03-05T14:07:03.589Z,997.99
2017-03-05T14:08:13.554Z,998
2017-03-05T14:09:24.347Z,997.96
2017-03-05T14:10:34.554Z,997.94
2017-03-05T14:11:44.510Z,997.96
2017-03-05T14:12:54.878Z,997.9
2017-03-05T14:14:05.618Z,997.93
2017-03-05T14:15:15.985Z,997.9
2017-03-05T14:16:27.077Z,997.89
2017-03-05T14:17:37.849Z,997.88
2017-03-05T14:18:48.249Z,997.9
2017-03-05T14:19:58.594Z,997.88
2017-03-05T14:21:09.346Z,997.87
2017-03-05T14:22:18.798Z,997.89
2017-03-05T14:23:29.141Z,997.87
2017-03-05T14:24:39.482Z,997.86
2017-03-05T14:25:50.329Z,997.86
2017-03-05T14:27:01.113Z,997.9
2017-03-05T14:28:12.177Z,997.86
2017-03-05T14:29:22.526Z,997.82
2017-03-05T14:30:33.319Z,997.87
2017-03-05T14:31:44.101Z,997.85
2017-03-05T14:32:53.686Z,997.84
2017-03-05T14:34:04.715Z,997.91
2017-03-05T14:35:15.454Z,997.87
2017-03-05T14:36:25.421Z,997.87
2017-03-05T14:37:36.178Z,997.89
2017-03-05T14:38:46.126Z,997.9
2017-03-05T14:39:56.718Z,997.9
2017-03-05T14:41:07.046Z,997.89
2017-03-05T14:42:17.410Z,997.87